createdAt,value
2018-07-01T00:02:38.159Z,7.63
2018-07-01T00:06:02.912Z,7.60
2018-07-01T00:09:27.545Z,8.43
2018-07-01T00:12:52.167Z,8.03
2018-07-01T00:16:16.833Z,8.23
2018-07-01T00:19:42.531Z,7.57
2018-07-01T00:23:07.987Z,8.20
2018-07-01T00:26:32.697Z,8.30
2018-07-01T00:29:57.389Z,8.20
2018-07-01T00:33:22.111Z,7.60
2018-07-01T00:36:46.741Z,7.70
2018-07-01T00:40:11.414Z,8.33
2018-07-01T00:43:36.053Z,8.90
2018-07-01T00:47:00.713Z,8.70
2018-07-01T00:50:25.461Z,8.50
2018-07-01T00:53:50.177Z,8.60
2018-07-01T00:57:14.828Z,8.43
2018-07-01T01:00:39.468Z,8.70
2018-07-01T01:04:04.119Z,7.57
2018-07-01T01:07:28.903Z,7.37
2018-07-01T01:10:53.601Z,8.70
2018-07-01T01:14:18.355Z,9.13
2018-07-01T01:17:42.968Z,8.03
2018-07-01T01:21:07.747Z,9.37
2018-07-01T01:24:33.452Z,9.13
2018-07-01T01:27:58.113Z,9.53
2018-07-01T01:31:22.780Z,8.73
2018-07-01T01:34:47.507Z,9.33
2018-07-01T01:38:12.509Z,8.90
2018-07-01T01:41:43.617Z,9.40
2018-07-01T01:46:13.541Z,9.60
2018-07-01T01:49:52.733Z,9.00
2018-07-01T01:53:22.546Z,9.70
2018-07-01T01:56:51.470Z,9.37
2018-07-01T02:00:20.779Z,9.77
2018-07-01T02:03:54.013Z,9.47
2018-07-01T02:07:29.787Z,9.27
2018-07-01T02:10:54.464Z,9.43
2018-07-01T02:14:26.769Z,9.33
2018-07-01T02:17:52.807Z,9.20
2018-07-01T02:21:20.086Z,9.93
2018-07-01T02:24:47.009Z,9.00
2018-07-01T02:28:11.687Z,9.57
2018-07-01T02:31:36.318Z,10.23
2018-07-01T02:35:01.019Z,10.23
2018-07-01T02:38:25.659Z,9.53
2018-07-01T02:41:50.385Z,9.90
2018-07-01T02:45:15.041Z,10.30
2018-07-01T02:48:39.729Z,10.50
2018-07-01T02:52:04.540Z,10.03
2018-07-01T02:55:29.229Z,10.87
2018-07-01T02:58:53.953Z,10.73
2018-07-01T03:02:18.627Z,10.47
2018-07-01T03:05:43.942Z,10.43
2018-07-01T03:09:12.397Z,10.43
2018-07-01T03:12:37.279Z,10.03
2018-07-01T03:16:02.118Z,10.33
2018-07-01T03:19:27.449Z,10.10
2018-07-01T03:22:52.062Z,10.30
2018-07-01T03:26:16.663Z,10.97
2018-07-01T03:29:41.323Z,10.53
2018-07-01T03:33:06.189Z,10.10
2018-07-01T03:36:30.827Z,10.57
2018-07-01T03:39:55.496Z,10.27
2018-07-01T03:43:19.778Z,10.30
2018-07-01T03:46:44.419Z,11.03
2018-07-01T03:50:09.208Z,10.77
2018-07-01T03:53:33.834Z,10.30
2018-07-01T03:56:58.128Z,10.30
2018-07-01T04:00:22.778Z,10.50
2018-07-01T04:03:47.396Z,9.67
2018-07-01T04:07:12.087Z,9.67
2018-07-01T04:10:36.672Z,9.90
2018-07-01T04:14:01.302Z,9.40
2018-07-01T04:17:25.899Z,10.33
2018-07-01T04:20:50.597Z,9.43
2018-07-01T04:24:15.257Z,9.73
2018-07-01T04:27:40.006Z,8.90
2018-07-01T04:31:05.765Z,8.90
2018-07-01T04:34:30.305Z,9.37
2018-07-01T04:37:54.772Z,8.80
2018-07-01T04:41:19.650Z,9.90
2018-07-01T04:44:44.449Z,8.37
2018-07-01T04:48:09.121Z,9.13
2018-07-01T04:51:34.807Z,9.30
2018-07-01T04:54:59.527Z,8.17
2018-07-01T04:58:24.115Z,8.17
2018-07-01T05:01:48.761Z,8.30
2018-07-01T05:05:13.523Z,7.23
2018-07-01T05:08:38.252Z,7.60
2018-07-01T05:12:02.949Z,8.10
2018-07-01T05:15:27.573Z,7.37
2018-07-01T05:18:52.250Z,7.97
2018-07-01T05:22:16.930Z,7.57
2018-07-01T05:25:41.330Z,7.97
2018-07-01T05:29:06.049Z,7.27
2018-07-01T05:32:30.745Z,7.27
2018-07-01T05:35:56.467Z,6.60
2018-07-01T05:39:21.141Z,7.50
2018-07-01T05:42:46.126Z,6.43
2018-07-01T05:46:10.445Z,6.43
2018-07-01T05:49:35.116Z,6.40
2018-07-01T05:52:59.499Z,6.80
2018-07-01T05:56:24.173Z,5.73
2018-07-01T05:59:48.849Z,6.10
2018-07-01T06:03:13.515Z,6.33
2018-07-01T06:06:37.961Z,6.03
2018-07-01T06:10:02.609Z,7.00
2018-07-01T06:13:27.328Z,6.00
2018-07-01T06:16:52.320Z,6.50
2018-07-01T06:20:17.155Z,6.13
2018-07-01T06:23:43.090Z,6.00
2018-07-01T06:27:07.457Z,6.40
2018-07-01T06:30:32.156Z,6.50
2018-07-01T06:33:56.787Z,6.37
2018-07-01T06:37:21.569Z,6.20
2018-07-01T06:40:46.193Z,6.30
2018-07-01T06:44:10.947Z,6.40
2018-07-01T06:47:35.719Z,6.70
2018-07-01T06:51:00.380Z,6.00
2018-07-01T06:54:25.120Z,5.87
2018-07-01T06:57:49.775Z,6.60
2018-07-01T07:01:14.477Z,5.93
2018-07-01T07:04:39.178Z,6.00
2018-07-01T07:08:04.013Z,5.20
2018-07-01T07:11:28.852Z,5.60
2018-07-01T07:14:53.573Z,5.70
2018-07-01T07:18:18.169Z,5.67
2018-07-01T07:21:42.976Z,5.60
2018-07-01T07:25:08.494Z,6.20
2018-07-01T07:28:33.693Z,4.87
2018-07-01T07:31:58.419Z,5.23
2018-07-01T07:35:23.285Z,5.50
2018-07-01T07:38:47.963Z,5.37
2018-07-01T07:42:12.771Z,5.00
2018-07-01T07:45:37.476Z,4.63
2018-07-01T07:49:02.210Z,4.70
2018-07-01T07:52:26.948Z,5.17
2018-07-01T07:55:51.751Z,5.33
2018-07-01T07:59:16.537Z,4.83
2018-07-01T08:02:41.647Z,5.53
2018-07-01T08:06:06.664Z,5.00
2018-07-01T08:09:31.343Z,5.30
2018-07-01T08:12:56.163Z,5.40
2018-07-01T08:16:20.544Z,5.40
2018-07-01T08:19:46.348Z,5.33
2018-07-01T08:23:11.169Z,4.93
2018-07-01T08:26:36.020Z,5.03
2018-07-01T08:30:00.698Z,5.43
2018-07-01T08:33:25.754Z,5.90
2018-07-01T08:36:50.528Z,5.57
2018-07-01T08:40:16.530Z,5.60
2018-07-01T08:43:41.296Z,5.67
2018-07-01T08:47:07.660Z,6.27
2018-07-01T08:50:32.239Z,5.60
2018-07-01T08:53:56.959Z,5.47
2018-07-01T08:57:22.742Z,5.83
2018-07-01T09:00:47.410Z,5.13
2018-07-01T09:04:12.721Z,5.87
2018-07-01T09:07:37.391Z,5.30
2018-07-01T09:11:02.095Z,5.57
2018-07-01T09:14:27.633Z,5.20
2018-07-01T09:17:52.331Z,5.37
2018-07-01T09:21:17.017Z,5.47
2018-07-01T09:24:41.735Z,5.43
2018-07-01T09:28:06.664Z,5.80
2018-07-01T09:31:31.379Z,5.17
2018-07-01T09:34:56.106Z,5.57
2018-07-01T09:38:21.079Z,5.87
2018-07-01T09:41:45.955Z,5.87
2018-07-01T09:45:10.656Z,5.20
2018-07-01T09:48:35.435Z,5.53
2018-07-01T09:52:00.186Z,5.70
2018-07-01T09:55:24.810Z,5.63
2018-07-01T09:58:49.508Z,5.13
2018-07-01T10:02:13.907Z,5.67
2018-07-01T10:05:38.905Z,5.77
2018-07-01T10:09:03.701Z,5.70
2018-07-01T10:12:28.354Z,5.60
2018-07-01T10:15:53.038Z,5.77
2018-07-01T10:19:17.805Z,5.67
2018-07-01T10:22:42.564Z,6.37
2018-07-01T10:26:07.660Z,6.07
2018-07-01T10:29:32.648Z,5.90
2018-07-01T10:32:57.328Z,5.53
2018-07-01T10:36:22.110Z,5.73
2018-07-01T10:39:46.919Z,5.97
2018-07-01T10:43:11.312Z,6.20
2018-07-01T10:46:36.266Z,5.67
2018-07-01T10:50:01.292Z,6.30
2018-07-01T10:53:26.032Z,6.10
2018-07-01T10:56:50.422Z,6.23
2018-07-01T11:00:14.816Z,6.10
2018-07-01T11:03:39.749Z,6.07
2018-07-01T11:07:04.198Z,6.17
2018-07-01T11:10:28.632Z,6.63
2018-07-01T11:13:53.371Z,6.20
2018-07-01T11:17:18.315Z,6.13
2018-07-01T11:20:44.177Z,5.93
2018-07-01T11:24:08.933Z,6.03
2018-07-01T11:27:33.714Z,6.40
2018-07-01T11:30:58.418Z,6.70
2018-07-01T11:34:23.092Z,6.90
2018-07-01T11:37:47.772Z,6.40
2018-07-01T11:41:12.628Z,6.63
2018-07-01T11:44:37.410Z,6.67
2018-07-01T11:48:01.847Z,6.93
2018-07-01T11:51:26.224Z,6.87
2018-07-01T11:54:51.028Z,6.87
2018-07-01T11:58:15.428Z,6.40
2018-07-01T12:01:39.933Z,6.33
2018-07-01T12:05:16.659Z,6.90
2018-07-01T12:08:29.506Z,6.40
2018-07-01T12:11:54.289Z,6.70
2018-07-01T12:15:19.033Z,6.73
2018-07-01T12:18:43.862Z,5.60
2018-07-01T12:22:08.597Z,6.07
2018-07-01T12:25:33.253Z,5.73
2018-07-01T12:28:57.663Z,6.60
2018-07-01T12:32:22.400Z,5.83
2018-07-01T12:35:46.703Z,6.70
2018-07-01T12:39:12.905Z,6.20
2018-07-01T12:42:37.609Z,6.05
2018-07-01T12:46:02.359Z,6.45
2018-07-01T12:49:27.011Z,5.60
2018-07-01T12:52:51.931Z,5.93
2018-07-01T12:56:16.666Z,5.87
2018-07-01T12:59:41.419Z,5.83
2018-07-01T13:03:05.935Z,5.77
2018-07-01T13:06:30.693Z,5.80
2018-07-01T13:09:55.590Z,5.27
2018-07-01T13:13:20.297Z,6.10
2018-07-01T13:16:46.868Z,5.85
2018-07-01T13:20:11.716Z,5.63
2018-07-01T13:23:36.439Z,5.55
2018-07-01T13:27:00.759Z,5.00
2018-07-01T13:30:25.523Z,5.65
2018-07-01T13:33:50.398Z,6.25
2018-07-01T13:37:15.066Z,5.58
2018-07-01T13:40:39.700Z,5.83
2018-07-01T13:44:04.447Z,5.65
2018-07-01T13:47:29.192Z,5.70
2018-07-01T13:50:53.852Z,5.50
2018-07-01T13:54:18.537Z,5.78
2018-07-01T13:57:43.353Z,5.62
2018-07-01T14:01:08.130Z,5.58
2018-07-01T14:04:33.076Z,5.90
2018-07-01T14:07:57.824Z,6.08
2018-07-01T14:11:22.312Z,5.10
2018-07-01T14:14:47.005Z,5.97
2018-07-01T14:18:11.692Z,5.92
2018-07-01T14:21:36.322Z,6.58
2018-07-01T14:25:00.674Z,6.60
2018-07-01T14:28:25.336Z,6.37
2018-07-01T14:31:50.010Z,6.28
2018-07-01T14:35:14.870Z,6.62
2018-07-01T14:38:39.206Z,6.15
2018-07-01T14:42:03.965Z,6.30
2018-07-01T14:45:28.622Z,6.47
2018-07-01T14:48:53.264Z,6.12
2018-07-01T14:52:18.048Z,5.75
2018-07-01T14:55:42.669Z,6.03
2018-07-01T14:59:07.645Z,6.22
2018-07-01T15:02:32.438Z,6.40
2018-07-01T15:05:56.800Z,6.42
2018-07-01T15:09:21.516Z,6.10
2018-07-01T15:12:46.053Z,6.00
2018-07-01T15:16:10.643Z,5.65
2018-07-01T15:19:35.384Z,6.25
2018-07-01T15:23:00.070Z,5.75
2018-07-01T15:26:24.725Z,5.40
2018-07-01T15:29:49.415Z,5.67
2018-07-01T15:33:14.120Z,5.65
2018-07-01T15:36:38.879Z,5.50
2018-07-01T15:40:03.643Z,5.45
2018-07-01T15:43:28.414Z,5.50
2018-07-01T15:46:53.073Z,6.20
2018-07-01T15:50:17.954Z,5.72
2018-07-01T15:53:42.681Z,5.95
2018-07-01T15:57:07.384Z,5.60
2018-07-01T16:00:31.822Z,5.78
2018-07-01T16:03:56.522Z,5.42
2018-07-01T16:07:22.252Z,5.58
2018-07-01T16:10:47.024Z,5.53
2018-07-01T16:14:11.914Z,5.05
2018-07-01T16:17:36.642Z,5.65
2018-07-01T16:21:01.280Z,4.95
2018-07-01T16:24:26.049Z,5.15
2018-07-01T16:27:56.000Z,5.45
2018-07-01T16:31:20.334Z,5.85
2018-07-01T16:34:45.877Z,5.10
2018-07-01T16:38:10.557Z,5.35
2018-07-01T16:41:35.237Z,5.05
2018-07-01T16:45:00.016Z,5.30
2018-07-01T16:48:24.359Z,5.08
2018-07-01T16:51:49.037Z,5.00
2018-07-01T16:55:13.899Z,5.17
2018-07-01T16:58:38.573Z,5.08
2018-07-01T17:02:03.470Z,5.50
2018-07-01T17:05:28.266Z,5.08
2018-07-01T17:08:52.934Z,4.85
2018-07-01T17:12:17.779Z,5.50
2018-07-01T17:15:42.547Z,5.50
2018-07-01T17:19:07.461Z,5.60
2018-07-01T17:22:32.121Z,5.33
2018-07-01T17:25:56.942Z,4.80
2018-07-01T17:29:21.334Z,4.62
2018-07-01T17:32:51.053Z,5.60
2018-07-01T17:36:15.844Z,4.95
2018-07-01T17:39:40.808Z,4.85
2018-07-01T17:43:05.862Z,4.62
2018-07-01T17:46:30.721Z,4.80
2018-07-01T17:49:55.473Z,5.03
2018-07-01T17:53:37.217Z,4.37
2018-07-01T17:57:01.591Z,4.75
2018-07-01T18:00:26.580Z,4.55
2018-07-01T18:03:51.398Z,4.62
2018-07-01T18:07:16.201Z,4.60
2018-07-01T18:10:40.882Z,4.58
2018-07-01T18:14:06.166Z,4.58
2018-07-01T18:17:30.957Z,4.37
2018-07-01T18:20:55.715Z,4.50
2018-07-01T18:24:48.909Z,3.90
2018-07-01T18:27:47.838Z,4.35
2018-07-01T18:31:10.039Z,3.90
2018-07-01T18:34:34.709Z,4.53
2018-07-01T18:37:59.422Z,4.65
2018-07-01T18:41:24.128Z,3.80
2018-07-01T18:44:48.863Z,4.00
2018-07-01T18:48:13.220Z,3.58
2018-07-01T18:51:37.917Z,3.63
2018-07-01T18:55:02.399Z,3.70
2018-07-01T18:58:27.182Z,3.90
2018-07-01T19:01:52.160Z,3.30
2018-07-01T19:05:16.543Z,4.33
2018-07-01T19:08:41.203Z,3.77
2018-07-01T19:12:05.930Z,3.70
2018-07-01T19:15:30.673Z,3.83
2018-07-01T19:18:55.336Z,3.37
2018-07-01T19:22:25.208Z,3.43
2018-07-01T19:25:50.081Z,3.60
2018-07-01T19:29:15.724Z,3.60
2018-07-01T19:32:40.098Z,2.90
2018-07-01T19:36:05.816Z,3.40
2018-07-01T19:39:30.482Z,3.27
2018-07-01T19:42:55.327Z,3.00
2018-07-01T19:46:19.540Z,3.27
2018-07-01T19:49:44.242Z,3.53
2018-07-01T19:53:08.826Z,3.50
2018-07-01T19:56:33.538Z,3.20
2018-07-01T19:59:58.188Z,3.10
2018-07-01T20:03:23.045Z,3.13
2018-07-01T20:06:47.371Z,3.30
2018-07-01T20:10:11.724Z,3.13
2018-07-01T20:13:36.122Z,2.90
2018-07-01T20:17:00.834Z,3.23
2018-07-01T20:20:25.658Z,2.70
2018-07-01T20:23:50.369Z,3.00
2018-07-01T20:27:15.072Z,2.70
2018-07-01T20:30:39.760Z,2.73
2018-07-01T20:34:04.461Z,3.07
2018-07-01T20:37:29.212Z,2.80
2018-07-01T20:40:54.028Z,2.80
2018-07-01T20:44:18.737Z,2.73
2018-07-01T20:47:43.446Z,2.73
2018-07-01T20:51:07.990Z,2.60
2018-07-01T20:54:32.790Z,2.57
2018-07-01T20:57:57.455Z,2.67
2018-07-01T21:01:22.135Z,2.37
2018-07-01T21:04:46.903Z,2.40
2018-07-01T21:08:12.627Z,2.63
2018-07-01T21:11:37.605Z,2.90
2018-07-01T21:15:02.499Z,2.63
2018-07-01T21:18:28.233Z,2.40
2018-07-01T21:21:53.144Z,2.90
2018-07-01T21:25:17.943Z,2.53
2018-07-01T21:28:42.661Z,2.50
2018-07-01T21:32:07.445Z,2.57
2018-07-01T21:35:32.105Z,2.50
2018-07-01T21:38:56.782Z,2.53
2018-07-01T21:42:21.489Z,2.23
2018-07-01T21:45:46.203Z,2.70
2018-07-01T21:49:10.875Z,2.53
2018-07-01T21:52:35.569Z,2.40
2018-07-01T21:56:00.205Z,2.40
2018-07-01T21:59:24.948Z,2.60
2018-07-01T22:02:49.696Z,2.50
2018-07-01T22:06:14.450Z,2.20
2018-07-01T22:09:38.766Z,2.50
2018-07-01T22:13:08.282Z,2.10
2018-07-01T22:16:33.009Z,2.37
2018-07-01T22:19:57.726Z,2.17
2018-07-01T22:23:22.368Z,1.83
2018-07-01T22:26:47.066Z,2.47
2018-07-01T22:30:11.844Z,2.13
2018-07-01T22:33:36.442Z,2.27
2018-07-01T22:37:01.116Z,2.27
2018-07-01T22:40:25.834Z,2.27
2018-07-01T22:43:50.553Z,2.23
2018-07-01T22:47:16.213Z,2.20
2018-07-01T22:50:40.880Z,2.20
2018-07-01T22:54:05.778Z,2.13
2018-07-01T22:57:30.507Z,2.33
2018-07-01T23:00:54.882Z,2.50
2018-07-01T23:04:19.528Z,2.20
2018-07-01T23:07:44.288Z,2.40
2018-07-01T23:11:09.944Z,2.20
2018-07-01T23:14:34.576Z,2.23
2018-07-01T23:17:59.381Z,2.30
2018-07-01T23:21:23.980Z,2.10
2018-07-01T23:24:48.605Z,1.87
2018-07-01T23:28:13.283Z,2.13
2018-07-01T23:31:37.920Z,2.40
2018-07-01T23:35:02.622Z,1.90
2018-07-01T23:38:27.260Z,2.13
2018-07-01T23:41:51.960Z,2.00
2018-07-01T23:45:16.807Z,2.37
2018-07-01T23:48:41.543Z,2.03
2018-07-01T23:52:06.261Z,1.97
2018-07-01T23:55:30.598Z,2.00
2018-07-01T23:58:55.350Z,2.00
